Time;durP1;ratioP1;P1;durP2;ratioP2;P2;SDS_P1;SDS_P2;PMS_P1;PMS_P2;Temp;Humidity;BMP_temperature;BMP_pressure;BME280_temperature;BME280_humidity;BME280_pressure;Samples;Min_cycle;Max_cycle;Signal;HPM_P1;HPM_P2
2022/03/02 00:00:20;;;;;;;40.70;25.08;;;5.90;99.90;;;;;;5053479;28;20048;-75
2022/03/02 00:02:46;;;;;;;37.30;23.88;;;5.90;99.90;;;;;;5053592;28;20458;-75
2022/03/02 00:05:13;;;;;;;36.97;22.92;;;5.90;99.90;;;;;;5053503;28;20124;-75
2022/03/02 00:07:40;;;;;;;36.53;23.63;;;5.90;99.90;;;;;;5054762;28;20064;-76
2022/03/02 00:10:06;;;;;;;36.05;23.05;;;5.90;99.90;;;;;;5053757;28;20555;-75
2022/03/02 00:12:32;;;;;;;35.33;22.33;;;5.90;99.90;;;;;;5036801;28;20649;-75
2022/03/02 00:14:58;;;;;;;39.28;24.40;;;5.90;99.90;;;;;;5053494;28;20041;-76
2022/03/02 00:17:23;;;;;;;46.58;24.85;;;5.90;99.90;;;;;;5052968;28;20045;-76
2022/03/02 00:19:49;;;;;;;40.80;24.75;;;5.90;99.90;;;;;;5053268;28;20379;-76
2022/03/02 00:22:15;;;;;;;41.47;22.92;;;5.90;99.90;;;;;;5053703;28;20078;-76
2022/03/02 00:24:40;;;;;;;39.72;24.02;;;5.90;99.90;;;;;;5053286;28;20041;-75
2022/03/02 00:27:06;;;;;;;39.40;23.55;;;5.90;99.90;;;;;;5052841;28;20049;-76
2022/03/02 00:29:32;;;;;;;39.28;24.00;;;5.80;99.90;;;;;;5053127;28;20037;-76
2022/03/02 00:31:57;;;;;;;41.00;24.88;;;5.80;99.90;;;;;;5053160;28;20080;-75
2022/03/02 00:34:23;;;;;;;44.58;23.70;;;5.80;99.90;;;;;;5054289;28;20059;-75
2022/03/02 00:36:48;;;;;;;48.35;26.35;;;5.80;99.90;;;;;;5052666;28;20037;-76
2022/03/02 00:39:14;;;;;;;40.45;24.67;;;5.80;99.90;;;;;;5054197;28;20512;-75
2022/03/02 00:41:39;;;;;;;45.38;25.83;;;5.80;99.90;;;;;;5054292;28;20083;-75
2022/03/02 00:44:05;;;;;;;39.42;25.35;;;5.80;99.90;;;;;;5052786;28;20234;-76
2022/03/02 00:46:31;;;;;;;41.53;26.45;;;5.80;99.90;;;;;;5053893;28;20048;-76
2022/03/02 00:48:58;;;;;;;46.33;26.23;;;5.80;99.90;;;;;;5054172;28;20064;-76
2022/03/02 00:51:25;;;;;;;47.00;28.08;;;5.70;99.90;;;;;;5053097;28;20363;-76
2022/03/02 00:53:52;;;;;;;44.03;27.05;;;5.70;99.90;;;;;;5053942;28;20494;-75
2022/03/02 00:56:18;;;;;;;41.25;26.88;;;5.70;99.90;;;;;;5052372;28;20056;-76
2022/03/02 00:58:44;;;;;;;41.80;26.58;;;5.60;99.90;;;;;;5052561;28;20041;-76
2022/03/02 01:01:10;;;;;;;43.30;27.23;;;5.70;99.90;;;;;;5052498;28;20037;-75
2022/03/02 01:03:35;;;;;;;46.53;27.67;;;5.70;99.90;;;;;;5053980;28;20055;-76
2022/03/02 01:06:03;;;;;;;44.00;26.17;;;5.60;99.90;;;;;;5052218;28;20498;-76
2022/03/02 01:08:28;;;;;;;46.47;27.92;;;5.70;99.90;;;;;;5052705;28;20505;-76
2022/03/02 01:10:54;;;;;;;43.63;26.73;;;5.60;99.90;;;;;;5051875;28;20132;-76
2022/03/02 01:13:20;;;;;;;46.58;27.08;;;5.60;99.90;;;;;;5053651;28;20133;-76
2022/03/02 01:15:45;;;;;;;48.03;27.52;;;5.70;99.90;;;;;;5053212;28;20629;-76
2022/03/02 01:18:11;;;;;;;44.20;25.90;;;5.60;99.90;;;;;;5053642;28;20047;-76
2022/03/02 01:20:36;;;;;;;45.60;26.05;;;5.60;99.90;;;;;;5053560;28;20037;-76
2022/03/02 01:23:02;;;;;;;44.75;28.65;;;5.60;99.90;;;;;;5053405;28;20510;-76
2022/03/02 01:25:28;;;;;;;44.97;28.55;;;5.70;99.90;;;;;;5053092;28;20108;-76
2022/03/02 01:27:53;;;;;;;45.38;27.92;;;5.70;99.90;;;;;;5035730;28;20499;-75
2022/03/02 01:30:20;;;;;;;45.72;29.02;;;5.60;99.90;;;;;;5053149;28;20039;-76
2022/03/02 01:32:46;;;;;;;45.90;27.92;;;5.60;99.90;;;;;;5052257;28;20454;-76
2022/03/02 01:35:12;;;;;;;51.15;31.05;;;5.60;99.90;;;;;;5051807;28;20079;-76
2022/03/02 01:37:37;;;;;;;46.53;28.42;;;5.60;99.90;;;;;;5051702;28;20044;-76
2022/03/02 01:40:05;;;;;;;46.63;28.92;;;5.60;99.90;;;;;;5051853;28;20037;-75
2022/03/02 01:42:30;;;;;;;47.70;28.05;;;5.70;99.90;;;;;;5051805;28;20492;-76
2022/03/02 01:44:56;;;;;;;45.00;26.73;;;5.60;99.90;;;;;;5051627;28;20064;-75
2022/03/02 01:47:27;;;;;;;48.80;29.35;;;5.60;99.90;;;;;;5051725;28;20437;-75
2022/03/02 01:49:53;;;;;;;45.80;28.58;;;5.50;99.90;;;;;;5051707;28;20560;-75
2022/03/02 01:52:18;;;;;;;49.47;28.33;;;5.60;99.90;;;;;;5052821;28;20045;-75
2022/03/02 01:54:44;;;;;;;45.83;28.60;;;5.50;99.90;;;;;;5051750;28;20053;-76
2022/03/02 01:57:10;;;;;;;46.10;29.95;;;5.60;99.90;;;;;;5052341;28;20045;-76
2022/03/02 01:59:36;;;;;;;49.83;30.48;;;5.60;99.90;;;;;;5051608;28;20041;-75
2022/03/02 02:02:02;;;;;;;50.83;31.08;;;5.60;99.90;;;;;;5051551;28;20048;-75
2022/03/02 02:04:27;;;;;;;47.90;29.88;;;5.50;99.90;;;;;;5052884;28;20402;-75
2022/03/02 02:06:53;;;;;;;44.67;29.17;;;5.50;99.90;;;;;;5051227;28;20049;-76
2022/03/02 02:09:19;;;;;;;50.50;30.17;;;5.50;99.90;;;;;;5052553;28;20527;-75
2022/03/02 02:11:44;;;;;;;49.55;30.00;;;5.50;99.90;;;;;;5034634;28;20517;-75
2022/03/02 02:14:10;;;;;;;48.63;29.17;;;5.40;99.90;;;;;;5052382;28;20036;-75
2022/03/02 02:16:36;;;;;;;50.42;29.98;;;5.40;99.90;;;;;;5050820;28;20529;-75
2022/03/02 02:19:01;;;;;;;50.80;29.80;;;5.40;99.90;;;;;;5052360;28;20051;-75
2022/03/02 02:21:27;;;;;;;51.20;32.30;;;5.50;99.90;;;;;;5051751;28;20494;-75
2022/03/02 02:23:53;;;;;;;48.85;29.23;;;5.50;99.90;;;;;;5050987;28;20692;-76
2022/03/02 02:26:21;;;;;;;48.65;30.58;;;5.50;99.90;;;;;;5051969;28;20132;-76
2022/03/02 02:28:48;;;;;;;47.13;28.73;;;5.50;99.90;;;;;;5050797;28;20036;-75
2022/03/02 02:31:15;;;;;;;50.75;30.33;;;5.40;99.90;;;;;;5051167;28;20375;-76
2022/03/02 02:33:41;;;;;;;53.83;30.75;;;5.40;99.90;;;;;;5050890;28;20094;-75
2022/03/02 02:36:06;;;;;;;53.47;30.60;;;5.40;99.90;;;;;;5050504;28;20044;-75
2022/03/02 02:38:32;;;;;;;47.75;29.95;;;5.40;99.90;;;;;;5050781;28;20069;-75
2022/03/02 02:40:58;;;;;;;53.97;31.42;;;5.20;99.90;;;;;;5056299;22;20107;-66
2022/03/02 02:43:25;;;;;;;51.75;31.10;;;5.30;99.90;;;;;;5031870;28;20033;-67
2022/03/02 02:45:51;;;;;;;49.08;29.58;;;5.30;99.90;;;;;;5031820;28;20037;-68
2022/03/02 02:48:17;;;;;;;49.13;29.60;;;5.30;99.90;;;;;;5031357;28;20044;-67
2022/03/02 02:50:42;;;;;;;48.17;29.48;;;5.40;99.90;;;;;;5046327;28;20046;-67
2022/03/02 02:53:10;;;;;;;51.05;30.10;;;5.20;99.90;;;;;;5031678;28;20401;-67
2022/03/02 02:55:39;;;;;;;52.15;31.00;;;5.30;99.90;;;;;;5031652;28;20069;-67
2022/03/02 02:58:05;;;;;;;49.70;31.10;;;5.20;99.90;;;;;;5031872;28;20087;-67
2022/03/02 03:00:34;;;;;;;56.70;31.52;;;5.20;99.90;;;;;;5031755;28;20041;-67
2022/03/02 03:03:00;;;;;;;51.75;30.67;;;5.10;99.90;;;;;;5031719;28;20079;-67
2022/03/02 03:05:31;;;;;;;52.78;31.90;;;5.10;99.90;;;;;;5031206;28;20041;-67
2022/03/02 03:08:01;;;;;;;52.33;31.73;;;5.00;99.90;;;;;;5031885;28;20041;-67
2022/03/02 03:10:28;;;;;;;47.85;31.15;;;5.00;99.90;;;;;;5031854;28;20586;-66
2022/03/02 03:12:53;;;;;;;59.45;34.08;;;5.00;99.90;;;;;;5031748;28;20072;-67
2022/03/02 03:15:20;;;;;;;52.15;31.20;;;4.90;99.90;;;;;;5031421;28;20120;-67
2022/03/02 03:17:47;;;;;;;62.05;35.35;;;4.90;99.90;;;;;;5031442;28;20048;-66
2022/03/02 03:20:16;;;;;;;54.60;32.80;;;4.90;99.90;;;;;;5031409;28;20465;-67
2022/03/02 03:22:42;;;;;;;54.50;31.95;;;4.80;99.90;;;;;;5031669;28;20049;-67
2022/03/02 03:25:08;;;;;;;54.97;32.85;;;4.70;99.90;;;;;;5031771;28;20402;-67
2022/03/02 03:27:35;;;;;;;61.38;35.58;;;4.60;99.90;;;;;;5031354;28;20073;-67
2022/03/02 03:30:01;;;;;;;56.78;34.80;;;4.60;99.90;;;;;;5031500;28;20076;-67
2022/03/02 03:32:26;;;;;;;55.53;32.30;;;4.50;99.90;;;;;;5032076;28;20667;-67
2022/03/02 03:34:53;;;;;;;55.33;32.63;;;4.50;99.90;;;;;;5035350;28;20052;-67
2022/03/02 03:37:19;;;;;;;49.67;31.05;;;4.40;99.90;;;;;;5035215;28;20042;-67
2022/03/02 03:39:44;;;;;;;54.38;33.67;;;4.40;99.90;;;;;;5035054;28;20592;-67
2022/03/02 03:42:10;;;;;;;55.35;31.90;;;4.30;99.90;;;;;;5035299;28;20111;-67
2022/03/02 03:44:36;;;;;;;58.55;34.25;;;4.40;99.90;;;;;;5035322;28;20033;-67
2022/03/02 03:47:02;;;;;;;59.78;33.75;;;4.40;99.90;;;;;;5034917;28;20570;-67
2022/03/02 03:49:27;;;;;;;56.28;32.67;;;4.40;99.90;;;;;;5035018;28;20150;-66
2022/03/02 03:51:53;;;;;;;55.85;32.45;;;4.40;99.90;;;;;;5035481;28;20037;-67
2022/03/02 03:54:19;;;;;;;56.75;32.83;;;4.40;99.90;;;;;;5035187;28;20128;-66
2022/03/02 03:56:44;;;;;;;58.42;32.15;;;4.40;99.90;;;;;;5034854;28;20064;-66
2022/03/02 03:59:10;;;;;;;56.83;31.80;;;4.30;99.90;;;;;;5035036;28;20046;-67
2022/03/02 04:01:35;;;;;;;59.58;33.63;;;4.30;99.90;;;;;;5034974;28;20103;-67
2022/03/02 04:04:01;;;;;;;60.60;32.47;;;4.20;99.90;;;;;;5034820;28;20094;-67
2022/03/02 04:06:27;;;;;;;61.13;34.78;;;4.20;99.90;;;;;;5034728;28;20056;-67
2022/03/02 04:08:52;;;;;;;57.72;33.78;;;4.30;99.90;;;;;;5034657;28;20524;-66
2022/03/02 04:11:18;;;;;;;55.90;32.45;;;4.20;99.90;;;;;;5034825;28;20037;-67
2022/03/02 04:13:44;;;;;;;58.70;34.88;;;4.10;99.90;;;;;;5034814;28;20117;-67
2022/03/02 04:16:10;;;;;;;55.80;32.53;;;4.20;99.90;;;;;;5034473;28;20048;-67
2022/03/02 04:18:35;;;;;;;56.05;31.60;;;4.20;99.90;;;;;;5034574;28;20406;-67
2022/03/02 04:21:01;;;;;;;58.55;33.72;;;4.10;99.90;;;;;;5034771;28;20043;-67
2022/03/02 04:23:27;;;;;;;55.10;31.75;;;4.10;99.90;;;;;;5034764;28;20037;-66
2022/03/02 04:25:53;;;;;;;53.45;31.50;;;4.00;99.90;;;;;;5034368;28;20029;-67
2022/03/02 04:28:20;;;;;;;59.63;33.28;;;4.00;99.90;;;;;;5034585;28;20052;-67
2022/03/02 04:30:45;;;;;;;61.08;33.08;;;4.00;99.90;;;;;;5034427;28;20434;-67
2022/03/02 04:33:12;;;;;;;54.67;32.03;;;4.00;99.90;;;;;;5049629;28;20034;-67
2022/03/02 04:35:38;;;;;;;55.50;32.38;;;3.90;99.90;;;;;;5034237;28;20045;-67
2022/03/02 04:38:04;;;;;;;56.05;32.13;;;3.90;99.90;;;;;;5049415;28;20050;-67
2022/03/02 04:40:30;;;;;;;53.92;31.20;;;3.90;99.90;;;;;;5034103;28;20490;-67
2022/03/02 04:42:56;;;;;;;56.85;33.13;;;3.80;99.90;;;;;;5034171;28;20046;-67
2022/03/02 04:45:27;;;;;;;58.58;32.63;;;3.90;99.90;;;;;;5033124;28;20041;-66
2022/03/02 04:47:53;;;;;;;53.50;31.63;;;3.90;99.90;;;;;;5034135;28;20047;-67
2022/03/02 04:50:19;;;;;;;55.53;33.70;;;3.80;99.90;;;;;;5034188;28;20193;-67
2022/03/02 04:52:46;;;;;;;60.70;34.80;;;3.70;99.90;;;;;;5033938;28;20644;-67
2022/03/02 04:55:12;;;;;;;56.28;32.80;;;3.80;99.90;;;;;;5034268;28;20053;-67
2022/03/02 04:57:52;;;;;;;58.63;31.70;;;3.80;99.90;;;;;;5033814;28;20045;-67
2022/03/02 05:00:25;;;;;;;59.03;33.70;;;3.70;99.90;;;;;;5033748;28;20037;-67
2022/03/02 05:02:51;;;;;;;56.67;32.50;;;3.70;99.90;;;;;;5049223;28;20538;-68
2022/03/02 05:05:19;;;;;;;51.40;30.83;;;3.50;99.90;;;;;;5049308;28;20422;-67
2022/03/02 05:07:45;;;;;;;57.63;32.38;;;3.50;99.90;;;;;;5033880;28;20524;-67
2022/03/02 05:10:12;;;;;;;57.30;33.65;;;3.50;99.90;;;;;;5032705;28;20061;-67
2022/03/02 05:12:39;;;;;;;59.95;33.40;;;3.40;99.90;;;;;;5033961;28;20049;-67
2022/03/02 05:15:06;;;;;;;52.65;31.67;;;3.40;99.90;;;;;;5033897;28;20045;-67
2022/03/02 05:17:32;;;;;;;55.72;32.85;;;3.40;99.90;;;;;;5033281;28;20391;-67
2022/03/02 05:19:58;;;;;;;56.55;32.65;;;3.30;99.90;;;;;;5033568;28;20117;-67
2022/03/02 05:22:24;;;;;;;52.25;31.38;;;3.30;99.90;;;;;;5033716;28;20034;-67
2022/03/02 05:24:50;;;;;;;54.83;33.08;;;3.40;99.90;;;;;;5033531;28;20509;-67
2022/03/02 05:27:15;;;;;;;54.63;31.55;;;3.50;99.90;;;;;;5033051;28;20099;-67
2022/03/02 05:29:41;;;;;;;56.90;33.60;;;3.40;99.90;;;;;;5048982;28;20045;-67
2022/03/02 05:32:07;;;;;;;52.65;30.92;;;3.40;99.90;;;;;;5033562;28;20128;-67
2022/03/02 05:34:33;;;;;;;53.47;33.55;;;3.40;99.90;;;;;;5033137;28;20112;-67
2022/03/02 05:36:59;;;;;;;57.05;32.53;;;3.40;99.90;;;;;;5032899;28;20072;-67
2022/03/02 05:39:24;;;;;;;54.17;33.15;;;3.30;99.90;;;;;;5033065;28;20050;-67
2022/03/02 05:41:51;;;;;;;53.72;31.92;;;3.40;99.90;;;;;;5033193;28;20092;-67
2022/03/02 05:44:17;;;;;;;56.30;32.55;;;3.30;99.90;;;;;;5033089;28;20572;-67
2022/03/02 05:46:42;;;;;;;55.92;32.83;;;3.30;99.90;;;;;;5032958;28;20116;-67
2022/03/02 05:49:08;;;;;;;55.53;32.20;;;3.30;99.90;;;;;;5033084;28;20466;-67
2022/03/02 05:51:35;;;;;;;57.58;33.05;;;3.30;99.90;;;;;;5033003;28;20033;-67
2022/03/02 05:54:03;;;;;;;59.70;33.25;;;3.30;99.90;;;;;;5032960;28;20121;-67
2022/03/02 05:56:29;;;;;;;56.03;32.15;;;3.30;99.90;;;;;;5046996;28;20042;-67
2022/03/02 05:58:55;;;;;;;54.10;32.40;;;3.30;99.90;;;;;;5032864;28;20096;-66
2022/03/02 06:01:21;;;;;;;53.90;31.73;;;3.30;99.90;;;;;;5032942;28;20478;-67
2022/03/02 06:03:49;;;;;;;58.75;34.10;;;3.20;99.90;;;;;;5032850;28;20036;-67
2022/03/02 06:06:15;;;;;;;56.40;32.50;;;3.20;99.90;;;;;;5032449;28;20215;-67
2022/03/02 06:08:40;;;;;;;57.58;34.25;;;3.20;99.90;;;;;;5032650;28;20422;-67
2022/03/02 06:11:06;;;;;;;62.33;35.67;;;3.20;99.90;;;;;;5032451;28;20387;-67
2022/03/02 06:13:32;;;;;;;59.63;34.20;;;3.10;99.90;;;;;;5032509;28;20172;-66
2022/03/02 06:15:58;;;;;;;56.17;33.78;;;3.10;99.90;;;;;;5032337;28;20045;-67
2022/03/02 06:18:25;;;;;;;60.92;35.35;;;3.10;99.90;;;;;;5032267;28;20041;-67
2022/03/02 06:20:52;;;;;;;59.55;33.45;;;3.00;99.90;;;;;;5032321;28;20091;-67
2022/03/02 06:23:21;;;;;;;61.30;35.80;;;2.90;99.90;;;;;;5032534;28;20044;-67
2022/03/02 06:25:48;;;;;;;58.72;34.28;;;2.90;99.90;;;;;;5031759;28;20041;-67
2022/03/02 06:28:14;;;;;;;61.42;34.50;;;2.90;99.90;;;;;;5047597;28;20124;-67
2022/03/02 06:30:40;;;;;;;62.05;35.33;;;2.90;99.90;;;;;;5032335;28;20049;-67
2022/03/02 06:33:07;;;;;;;57.65;36.00;;;2.90;99.90;;;;;;5032277;28;20041;-67
2022/03/02 06:35:33;;;;;;;60.20;35.35;;;2.80;99.90;;;;;;5031863;28;20048;-67
2022/03/02 06:37:58;;;;;;;59.72;34.88;;;2.80;99.90;;;;;;5032012;28;20046;-66
2022/03/02 06:40:24;;;;;;;57.67;35.13;;;2.80;99.90;;;;;;5031996;28;20037;-67
2022/03/02 06:43:12;;;;;;;59.65;34.90;;;3.00;99.90;;;;;;5032156;28;20029;-67
2022/03/02 06:45:56;;;;;;;56.20;32.88;;;3.00;99.90;;;;;;5030439;28;20073;-67
2022/03/02 06:48:51;;;;;;;59.40;33.78;;;3.00;99.90;;;;;;5031963;28;20048;-67
2022/03/02 06:51:20;;;;;;;60.30;33.95;;;3.10;99.90;;;;;;5030566;28;20111;-67
2022/03/02 06:53:46;;;;;;;58.92;34.40;;;3.00;99.90;;;;;;5032039;28;20038;-68
2022/03/02 06:56:11;;;;;;;58.10;34.15;;;3.10;99.90;;;;;;5031703;28;20095;-67
2022/03/02 06:59:00;;;;;;;60.47;34.08;;;3.10;99.90;;;;;;5031709;28;20496;-68
2022/03/02 07:01:31;;;;;;;57.67;32.65;;;3.10;99.90;;;;;;5032041;28;20037;-67
2022/03/02 07:04:01;;;;;;;53.92;31.80;;;3.10;99.90;;;;;;5031988;28;20092;-69
2022/03/02 07:06:28;;;;;;;52.58;32.88;;;3.20;99.90;;;;;;5030487;28;20053;-67
2022/03/02 07:08:55;;;;;;;57.10;32.67;;;3.30;99.90;;;;;;5031316;28;20046;-67
2022/03/02 07:11:22;;;;;;;58.53;35.45;;;3.40;99.90;;;;;;5031501;28;20041;-67
2022/03/02 07:13:48;;;;;;;60.22;34.80;;;3.50;99.90;;;;;;5031843;28;20051;-67
2022/03/02 07:16:16;;;;;;;57.15;33.47;;;3.60;99.90;;;;;;5031580;28;20073;-67
2022/03/02 07:18:42;;;;;;;54.05;32.95;;;3.70;99.90;;;;;;5031511;28;20534;-66
2022/03/02 07:21:11;;;;;;;54.78;31.63;;;3.70;99.90;;;;;;5031538;28;20034;-66
2022/03/02 07:23:45;;;;;;;56.08;32.10;;;3.90;99.90;;;;;;5046930;28;20049;-67
2022/03/02 07:26:11;;;;;;;56.42;31.40;;;4.00;99.90;;;;;;5046593;28;20054;-70
2022/03/02 07:28:39;;;;;;;55.88;32.13;;;4.10;99.90;;;;;;5031518;28;20559;-67
2022/03/02 07:31:08;;;;;;;52.75;32.25;;;4.20;99.90;;;;;;5046950;28;20046;-70
2022/03/02 07:33:37;;;;;;;53.70;31.10;;;4.40;99.90;;;;;;5031438;28;20418;-69
2022/03/02 07:36:03;;;;;;;51.15;31.08;;;4.40;99.90;;;;;;5031172;28;20041;-69
2022/03/02 07:38:31;;;;;;;56.03;33.72;;;4.50;99.90;;;;;;5031381;28;20041;-68
2022/03/02 07:40:57;;;;;;;52.97;31.55;;;4.50;99.90;;;;;;5031270;28;20063;-68
2022/03/02 07:43:23;;;;;;;50.35;31.35;;;4.60;99.90;;;;;;5031627;28;20041;-68
2022/03/02 07:45:49;;;;;;;50.25;29.88;;;4.70;99.90;;;;;;5031364;28;20423;-68
2022/03/02 07:48:15;;;;;;;50.25;29.85;;;4.60;99.90;;;;;;5031460;28;20526;-68
2022/03/02 07:50:42;;;;;;;49.10;29.17;;;4.60;99.90;;;;;;5031350;28;20124;-68
2022/03/02 07:53:08;;;;;;;54.13;30.92;;;4.70;99.90;;;;;;5031251;28;20037;-68
2022/03/02 07:55:34;;;;;;;52.22;30.83;;;4.80;99.90;;;;;;5031233;28;20045;-68
2022/03/02 07:58:03;;;;;;;49.20;29.00;;;4.90;99.90;;;;;;5031364;28;20542;-68
2022/03/02 08:00:28;;;;;;;47.50;29.02;;;5.00;99.90;;;;;;5031287;28;20041;-68
2022/03/02 08:02:58;;;;;;;47.50;29.67;;;5.00;99.90;;;;;;5031163;28;20045;-69
2022/03/02 08:05:24;;;;;;;51.80;29.48;;;5.10;99.90;;;;;;5030888;28;20099;-68
2022/03/02 08:07:50;;;;;;;47.67;29.48;;;5.20;99.90;;;;;;5031079;28;20041;-69
2022/03/02 08:10:17;;;;;;;49.30;29.98;;;5.30;99.90;;;;;;5046533;28;20107;-70
2022/03/02 08:12:44;;;;;;;48.88;29.83;;;5.30;99.90;;;;;;5046510;28;20037;-68
2022/03/02 08:15:10;;;;;;;47.47;30.73;;;5.20;99.90;;;;;;5031074;28;20049;-69
2022/03/02 08:17:36;;;;;;;47.15;28.42;;;5.30;99.90;;;;;;5030832;28;20042;-67
2022/03/02 08:20:03;;;;;;;44.53;28.85;;;5.30;99.90;;;;;;5032393;28;20067;-68
2022/03/02 08:22:30;;;;;;;49.00;29.67;;;5.40;99.90;;;;;;5049975;28;20059;-69
2022/03/02 08:25:07;;;;;;;48.67;29.05;;;5.40;99.90;;;;;;5034706;28;20121;-69
2022/03/02 08:27:33;;;;;;;50.17;28.83;;;5.50;99.90;;;;;;5034585;28;20083;-68
2022/03/02 08:30:01;;;;;;;46.97;29.02;;;5.50;99.90;;;;;;5042295;28;20045;-68
2022/03/02 08:32:30;;;;;;;45.00;28.23;;;5.50;99.90;;;;;;5043366;28;20041;-68
2022/03/02 08:34:57;;;;;;;45.92;27.63;;;5.60;99.90;;;;;;5043313;28;20048;-68
2022/03/02 08:37:24;;;;;;;44.88;27.35;;;5.60;99.90;;;;;;5044726;28;20033;-68
2022/03/02 08:39:49;;;;;;;48.13;29.23;;;5.60;99.90;;;;;;5066818;22;20045;-78
2022/03/02 08:42:15;;;;;;;45.63;28.00;;;5.70;99.90;;;;;;5043070;28;20486;-75
2022/03/02 08:44:44;;;;;;;44.70;27.42;;;5.80;99.90;;;;;;5050202;28;20446;-74
2022/03/02 08:47:09;;;;;;;45.50;27.10;;;5.80;99.90;;;;;;5054270;28;20072;-70
2022/03/02 08:49:35;;;;;;;44.42;27.77;;;5.90;99.90;;;;;;5051338;28;20426;-73
2022/03/02 08:52:02;;;;;;;44.92;27.52;;;6.00;99.90;;;;;;5054002;28;20120;-73
2022/03/02 08:54:34;;;;;;;45.60;27.90;;;6.00;99.90;;;;;;5052414;28;20154;-77
2022/03/02 08:57:02;;;;;;;46.65;30.58;;;6.00;99.90;;;;;;5052494;28;20164;-77
2022/03/02 08:59:31;;;;;;;45.67;27.17;;;6.00;99.90;;;;;;5052862;28;20049;-77
2022/03/02 09:01:57;;;;;;;45.85;28.35;;;6.00;99.90;;;;;;5036172;28;20119;-77
2022/03/02 09:04:23;;;;;;;45.58;28.00;;;6.10;99.90;;;;;;5036221;28;20052;-77
2022/03/02 09:06:49;;;;;;;43.10;27.30;;;6.10;99.90;;;;;;5035657;28;20390;-77
2022/03/02 09:09:17;;;;;;;44.22;27.02;;;6.20;99.90;;;;;;5036181;28;20045;-74
2022/03/02 09:11:43;;;;;;;49.67;27.88;;;6.10;99.90;;;;;;5048325;28;20040;-78
2022/03/02 09:14:09;;;;;;;46.30;25.85;;;6.10;99.90;;;;;;5041976;28;20120;-76
2022/03/02 09:16:35;;;;;;;42.17;27.83;;;6.20;99.90;;;;;;5040934;28;20548;-77
2022/03/02 09:19:01;;;;;;;42.20;26.73;;;6.20;99.90;;;;;;5020840;28;20072;-77
2022/03/02 09:21:27;;;;;;;41.42;25.27;;;6.30;99.90;;;;;;5032287;28;20079;-77
2022/03/02 09:23:54;;;;;;;41.30;24.95;;;6.30;99.90;;;;;;5034063;28;20041;-78
2022/03/02 09:26:20;;;;;;;43.97;26.98;;;6.40;99.90;;;;;;5032041;28;20037;-78
2022/03/02 09:28:52;;;;;;;43.03;25.73;;;6.40;99.90;;;;;;5032233;28;20091;-77
2022/03/02 09:31:20;;;;;;;43.40;26.70;;;6.40;99.90;;;;;;5031874;28;20127;-77
2022/03/02 09:33:49;;;;;;;43.17;26.25;;;6.30;99.90;;;;;;5033366;28;20051;-74
2022/03/02 09:36:20;;;;;;;44.15;24.98;;;6.40;99.90;;;;;;5031846;28;20038;-76
2022/03/02 09:38:47;;;;;;;41.10;24.45;;;6.40;99.90;;;;;;5031948;28;20045;-76
2022/03/02 09:41:33;;;;;;;44.13;25.27;;;6.40;99.90;;;;;;5031841;28;20052;-73
2022/03/02 09:43:59;;;;;;;37.17;23.67;;;6.50;99.90;;;;;;5034385;28;20045;-77
2022/03/02 09:46:34;;;;;;;42.33;25.27;;;6.50;99.90;;;;;;5044229;28;20033;-77
2022/03/02 09:49:11;;;;;;;42.80;26.75;;;6.60;99.90;;;;;;5051793;28;20036;-77
2022/03/02 09:51:39;;;;;;;43.10;25.80;;;6.60;99.90;;;;;;5035421;28;20033;-70
2022/03/02 09:54:05;;;;;;;48.75;27.50;;;6.60;99.90;;;;;;5038616;28;20435;-77
2022/03/02 09:56:35;;;;;;;41.72;24.80;;;6.60;99.90;;;;;;5018823;28;20038;-77
2022/03/02 09:59:03;;;;;;;47.08;27.50;;;6.70;99.90;;;;;;5048845;28;20399;-76
2022/03/02 10:01:32;;;;;;;42.33;24.02;;;6.70;99.90;;;;;;5051463;28;20041;-76
2022/03/02 10:04:13;;;;;;;40.55;25.10;;;6.70;99.90;;;;;;5051513;28;20073;-76
2022/03/02 10:06:42;;;;;;;43.15;25.10;;;6.60;99.90;;;;;;5047891;28;20049;-77
2022/03/02 10:09:11;;;;;;;40.22;25.70;;;6.70;99.90;;;;;;5051530;28;20433;-77
2022/03/02 10:11:40;;;;;;;37.45;21.85;;;6.70;99.90;;;;;;5051245;28;20139;-77
2022/03/02 10:14:06;;;;;;;41.70;25.42;;;6.70;99.90;;;;;;5041476;28;20117;-76
2022/03/02 10:16:44;;;;;;;38.33;24.02;;;6.70;99.90;;;;;;5045166;28;20120;-76
2022/03/02 10:19:23;;;;;;;38.50;23.65;;;6.90;99.90;;;;;;5051197;28;20083;-78
2022/03/02 10:22:20;;;;;;;39.88;23.35;;;6.90;99.90;;;;;;5034590;28;20033;-77
2022/03/02 10:24:49;;;;;;;42.70;24.95;;;6.90;99.90;;;;;;5042159;28;20045;-78
2022/03/02 10:27:43;;;;;;;39.72;22.80;;;7.00;99.90;;;;;;5050678;28;20124;-77
2022/03/02 10:30:11;;;;;;;39.38;24.25;;;7.10;99.90;;;;;;5050893;28;20049;-78
2022/03/02 10:32:41;;;;;;;36.33;21.80;;;7.10;99.50;;;;;;5051257;28;20037;-76
2022/03/02 10:35:13;;;;;;;39.35;22.55;;;7.10;99.50;;;;;;5045062;28;20039;-77
2022/03/02 10:37:53;;;;;;;39.97;22.15;;;7.20;99.20;;;;;;5039515;28;20053;-77
2022/03/02 10:40:24;;;;;;;41.33;25.13;;;7.20;99.30;;;;;;5022591;28;20042;-78
2022/03/02 10:43:01;;;;;;;38.17;22.85;;;7.30;99.30;;;;;;5018856;28;20037;-78
2022/03/02 10:45:30;;;;;;;40.30;23.85;;;7.30;99.00;;;;;;5019785;28;20076;-78
2022/03/02 10:48:02;;;;;;;40.42;24.00;;;7.40;99.40;;;;;;5039582;28;20037;-77
2022/03/02 10:50:35;;;;;;;35.60;22.13;;;7.40;99.80;;;;;;5036106;28;20047;-78
2022/03/02 10:53:04;;;;;;;37.65;23.52;;;7.50;98.30;;;;;;5040623;28;20547;-77
2022/03/02 10:55:32;;;;;;;41.53;24.83;;;7.50;98.70;;;;;;5023046;28;20076;-77
2022/03/02 10:58:02;;;;;;;43.15;23.55;;;7.50;98.70;;;;;;5041446;28;20124;-78
2022/03/02 11:00:27;;;;;;;39.08;24.20;;;7.50;98.90;;;;;;5031836;28;20033;-78
2022/03/02 11:02:57;;;;;;;43.80;24.73;;;7.50;98.70;;;;;;5042299;28;20044;-78
2022/03/02 11:05:25;;;;;;;37.58;22.83;;;7.60;99.10;;;;;;5025215;28;20043;-78
2022/03/02 11:07:51;;;;;;;36.63;23.38;;;7.70;98.90;;;;;;5033882;28;20091;-77
2022/03/02 11:10:19;;;;;;;39.80;23.60;;;7.60;98.90;;;;;;5050339;28;20516;-78
2022/03/02 11:12:47;;;;;;;36.78;23.63;;;7.70;98.70;;;;;;5050313;28;20038;-78
2022/03/02 11:15:14;;;;;;;40.53;24.17;;;7.60;98.30;;;;;;5050252;28;20041;-77
2022/03/02 11:17:54;;;;;;;37.53;21.95;;;7.60;98.40;;;;;;5015853;28;20052;-77
2022/03/02 11:20:21;;;;;;;33.00;21.52;;;7.60;97.20;;;;;;5047656;28;20398;-78
2022/03/02 11:22:56;;;;;;;37.45;22.13;;;7.70;97.40;;;;;;5033754;28;20045;-78
2022/03/02 11:25:44;;;;;;;33.25;22.85;;;7.70;96.90;;;;;;5045530;28;20029;-77
2022/03/02 11:28:14;;;;;;;32.40;20.92;;;7.70;95.80;;;;;;5023220;28;20038;-77
2022/03/02 11:30:46;;;;;;;36.47;22.60;;;7.70;95.80;;;;;;5050114;28;20127;-75
2022/03/02 11:33:11;;;;;;;36.33;22.98;;;7.80;96.50;;;;;;5050600;28;20041;-75
2022/03/02 11:35:37;;;;;;;34.30;21.95;;;7.80;96.40;;;;;;5049791;28;20509;-79
2022/03/02 11:38:05;;;;;;;32.28;21.50;;;7.90;95.70;;;;;;5050267;28;20051;-79
2022/03/02 11:40:43;;;;;;;32.63;21.50;;;8.00;95.10;;;;;;5050214;28;20119;-78
2022/03/02 11:43:21;;;;;;;34.88;21.85;;;7.90;95.00;;;;;;5050109;28;20073;-78
2022/03/02 11:45:49;;;;;;;33.10;20.80;;;7.90;94.20;;;;;;5049898;28;20130;-77
2022/03/02 11:48:15;;;;;;;33.63;20.63;;;8.00;93.60;;;;;;5033515;28;20178;-78
2022/03/02 11:51:00;;;;;;;31.77;19.98;;;8.00;92.70;;;;;;5050343;28;20557;-78
2022/03/02 11:53:37;;;;;;;33.05;19.98;;;8.00;92.30;;;;;;5050517;28;20525;-78
2022/03/02 11:56:04;;;;;;;33.28;19.92;;;8.00;92.00;;;;;;5053508;28;20494;-78
2022/03/02 11:58:52;;;;;;;35.30;22.13;;;8.10;92.30;;;;;;5037223;28;20401;-77
2022/03/02 12:01:18;;;;;;;30.83;20.27;;;8.10;92.60;;;;;;5053678;28;20044;-78
2022/03/02 12:04:03;;;;;;;30.58;19.55;;;8.20;91.00;;;;;;5053624;28;20405;-78
2022/03/02 12:06:38;;;;;;;32.25;19.33;;;8.20;88.00;;;;;;5037093;28;20448;-78
2022/03/02 12:09:04;;;;;;;31.95;19.67;;;8.20;88.00;;;;;;5054039;28;20041;-78
2022/03/02 12:11:35;;;;;;;31.02;18.48;;;8.30;87.10;;;;;;5037087;28;20044;-77
2022/03/02 12:14:12;;;;;;;27.95;18.33;;;8.40;86.40;;;;;;5053799;28;20552;-78
2022/03/02 12:16:52;;;;;;;31.48;20.27;;;8.40;85.50;;;;;;5053270;28;20053;-75
2022/03/02 12:19:21;;;;;;;31.23;20.23;;;8.50;83.30;;;;;;5054760;28;20139;-76
2022/03/02 12:21:47;;;;;;;27.33;17.70;;;8.50;83.60;;;;;;5044685;28;20040;-76
2022/03/02 12:24:18;;;;;;;27.70;18.83;;;8.50;82.40;;;;;;5042526;28;20494;-77
2022/03/02 12:26:49;;;;;;;27.48;17.77;;;8.50;82.90;;;;;;5036119;28;20042;-75
2022/03/02 12:29:16;;;;;;;29.85;18.50;;;8.60;81.80;;;;;;5033395;28;20049;-77
2022/03/02 12:31:44;;;;;;;30.23;19.58;;;8.60;81.90;;;;;;5016898;28;20049;-76
2022/03/02 12:34:14;;;;;;;28.27;18.40;;;8.60;82.10;;;;;;5033291;28;20502;-76
2022/03/02 12:36:41;;;;;;;30.75;19.42;;;8.70;80.80;;;;;;5033176;28;20455;-75
2022/03/02 12:39:08;;;;;;;32.15;18.85;;;8.70;79.80;;;;;;5032891;28;20048;-76